createdAt,value
2018-11-27T00:00:18.369Z,100.00
2018-11-27T00:02:48.462Z,100.00
2018-11-27T00:05:19.025Z,100.00
2018-11-27T00:07:49.818Z,100.00
2018-11-27T00:10:20.530Z,100.00
2018-11-27T00:12:50.788Z,100.00
2018-11-27T00:15:22.032Z,100.00
2018-11-27T00:17:52.667Z,100.00
2018-11-27T00:20:23.276Z,100.00
2018-11-27T00:22:53.702Z,100.00
2018-11-27T00:25:27.000Z,100.00
2018-11-27T00:28:01.742Z,100.00
2018-11-27T00:30:34.029Z,100.00
2018-11-27T00:33:05.327Z,100.00
2018-11-27T00:35:36.121Z,100.00
2018-11-27T00:38:09.099Z,100.00
2018-11-27T00:40:40.020Z,100.00
2018-11-27T00:43:10.180Z,100.00
2018-11-27T00:45:41.081Z,100.00
2018-11-27T00:48:12.123Z,100.00
2018-11-27T00:50:42.980Z,100.00
2018-11-27T00:53:12.966Z,100.00
2018-11-27T00:55:44.171Z,100.00
2018-11-27T00:58:16.588Z,100.00
2018-11-27T01:00:48.080Z,100.00
2018-11-27T01:03:18.991Z,100.00
2018-11-27T01:05:49.126Z,100.00
2018-11-27T01:08:19.311Z,100.00
2018-11-27T01:10:51.215Z,100.00
2018-11-27T01:13:21.872Z,100.00
2018-11-27T01:15:52.362Z,100.00
2018-11-27T01:18:23.810Z,100.00
2018-11-27T01:20:54.331Z,100.00
2018-11-27T01:23:31.034Z,100.00
2018-11-27T01:26:01.234Z,100.00
2018-11-27T01:28:32.182Z,100.00
2018-11-27T01:31:03.226Z,100.00
2018-11-27T01:33:33.241Z,100.00
2018-11-27T01:36:04.320Z,100.00
2018-11-27T01:38:34.357Z,100.00
2018-11-27T01:41:05.283Z,100.00
2018-11-27T01:43:35.855Z,100.00
2018-11-27T01:46:06.528Z,100.00
2018-11-27T01:48:39.889Z,100.00
2018-11-27T01:51:10.447Z,100.00
2018-11-27T01:53:41.400Z,100.00
2018-11-27T01:56:11.571Z,100.00
2018-11-27T02:01:59.126Z,100.00
2018-11-27T02:04:31.364Z,100.00
2018-11-27T02:07:02.585Z,100.00
2018-11-27T02:09:36.367Z,100.00
2018-11-27T02:12:07.141Z,100.00
2018-11-27T02:14:37.519Z,100.00
2018-11-27T02:17:08.652Z,100.00
2018-11-27T02:19:39.493Z,100.00
2018-11-27T02:22:10.307Z,100.00
2018-11-27T02:24:40.526Z,100.00
2018-11-27T02:27:12.165Z,100.00
2018-11-27T02:29:42.564Z,100.00
2018-11-27T02:32:13.245Z,100.00
2018-11-27T02:34:43.552Z,100.00
2018-11-27T02:37:14.327Z,100.00
2018-11-27T02:39:44.667Z,100.00
2018-11-27T02:42:19.503Z,100.00
2018-11-27T02:44:51.613Z,100.00
2018-11-27T02:47:22.608Z,100.00
2018-11-27T02:49:52.601Z,100.00
2018-11-27T02:52:27.500Z,100.00
2018-11-27T02:54:57.594Z,100.00
2018-11-27T02:57:27.680Z,100.00
2018-11-27T02:59:58.854Z,100.00
2018-11-27T03:02:29.574Z,100.00
2018-11-27T03:04:59.596Z,100.00
2018-11-27T03:07:30.804Z,100.00
2018-11-27T03:10:01.798Z,100.00
2018-11-27T03:12:31.797Z,100.00
2018-11-27T03:15:07.125Z,100.00
2018-11-27T03:17:39.656Z,100.00
2018-11-27T03:20:11.400Z,100.00
2018-11-27T03:22:41.483Z,100.00
2018-11-27T03:25:19.611Z,100.00
2018-11-27T03:27:52.806Z,100.00
2018-11-27T03:30:26.814Z,100.00
2018-11-27T03:33:08.898Z,100.00
2018-11-27T03:35:38.912Z,100.00
2018-11-27T03:38:15.673Z,100.00
2018-11-27T03:40:46.679Z,100.00
2018-11-27T03:43:16.668Z,100.00
2018-11-27T03:45:47.641Z,100.00
2018-11-27T03:48:18.261Z,100.00
2018-11-27T03:50:48.903Z,100.00
2018-11-27T03:53:19.363Z,100.00
2018-11-27T03:55:52.698Z,100.00
2018-11-27T03:58:22.851Z,100.00
2018-11-27T04:00:54.032Z,100.00
2018-11-27T04:03:26.875Z,100.00
2018-11-27T04:05:57.892Z,100.00
2018-11-27T04:08:29.004Z,100.00
2018-11-27T04:10:59.907Z,100.00
2018-11-27T04:13:29.991Z,100.00
2018-11-27T04:16:00.103Z,100.00
2018-11-27T04:18:30.643Z,100.00
2018-11-27T04:21:02.108Z,100.00
2018-11-27T04:23:32.112Z,100.00
2018-11-27T04:26:03.074Z,100.00
2018-11-27T04:28:34.051Z,100.00
2018-11-27T04:31:05.226Z,100.00
2018-11-27T04:33:35.984Z,100.00
2018-11-27T04:36:06.808Z,100.00
2018-11-27T04:38:37.107Z,100.00
2018-11-27T04:41:07.317Z,100.00
2018-11-27T04:43:38.066Z,100.00
2018-11-27T04:46:15.031Z,100.00
2018-11-27T04:48:46.104Z,100.00
2018-11-27T04:51:16.380Z,100.00
2018-11-27T04:53:47.061Z,100.00
2018-11-27T04:56:20.124Z,100.00
2018-11-27T04:58:50.996Z,100.00
2018-11-27T05:01:21.536Z,100.00
2018-11-27T05:03:52.283Z,100.00
2018-11-27T05:06:22.744Z,100.00
2018-11-27T05:08:53.432Z,100.00
2018-11-27T05:11:23.439Z,100.00
2018-11-27T05:13:54.189Z,100.00
2018-11-27T05:16:28.116Z,100.00
2018-11-27T05:18:58.207Z,100.00
2018-11-27T05:21:29.391Z,100.00
2018-11-27T05:24:06.937Z,100.00
2018-11-27T05:26:37.368Z,100.00
2018-11-27T05:29:10.371Z,100.00
2018-11-27T05:31:41.385Z,100.00
2018-11-27T05:34:12.436Z,100.00
2018-11-27T05:36:48.105Z,100.00
2018-11-27T05:39:19.448Z,100.00
2018-11-27T05:41:50.296Z,100.00
2018-11-27T05:44:21.489Z,100.00
2018-11-27T05:47:00.318Z,100.00
2018-11-27T05:49:31.469Z,100.00
2018-11-27T05:52:02.448Z,100.00
2018-11-27T05:54:33.678Z,100.00
2018-11-27T05:57:06.812Z,100.00
2018-11-27T05:59:37.430Z,100.00
2018-11-27T06:02:08.693Z,100.00
2018-11-27T06:04:38.743Z,100.00
2018-11-27T06:07:09.732Z,100.00
2018-11-27T06:09:39.731Z,100.00
2018-11-27T06:12:10.515Z,100.00
2018-11-27T06:14:40.640Z,100.00
2018-11-27T06:17:11.812Z,100.00
2018-11-27T06:19:42.278Z,100.00
2018-11-27T06:22:12.588Z,100.00
2018-11-27T06:24:43.516Z,100.00
2018-11-27T06:27:14.368Z,100.00
2018-11-27T06:29:44.587Z,100.00
2018-11-27T06:32:21.497Z,100.00
2018-11-27T06:34:52.731Z,100.00
2018-11-27T06:37:31.603Z,100.00
2018-11-27T06:40:02.631Z,100.00
2018-11-27T06:42:33.663Z,100.00
2018-11-27T06:45:04.985Z,100.00
2018-11-27T06:47:35.022Z,100.00
2018-11-27T06:50:06.602Z,100.00
2018-11-27T06:52:36.667Z,100.00
2018-11-27T06:55:09.548Z,100.00
2018-11-27T06:57:41.828Z,100.00
2018-11-27T07:00:16.740Z,100.00
2018-11-27T07:02:48.859Z,100.00
2018-11-27T07:05:20.170Z,100.00
2018-11-27T07:07:52.838Z,100.00
2018-11-27T07:10:28.735Z,100.00
2018-11-27T07:13:06.639Z,100.00
2018-11-27T07:15:36.823Z,100.00
2018-11-27T07:18:08.748Z,100.00
2018-11-27T07:20:40.837Z,100.00
2018-11-27T07:23:14.700Z,100.00
2018-11-27T07:25:44.889Z,100.00
2018-11-27T07:28:15.979Z,100.00
2018-11-27T07:30:46.773Z,100.00
2018-11-27T07:33:16.881Z,100.00
2018-11-27T07:35:47.983Z,100.00
2018-11-27T07:38:18.856Z,100.00
2018-11-27T07:40:49.626Z,100.00
2018-11-27T07:43:20.109Z,100.00
2018-11-27T07:45:55.235Z,100.00
2018-11-27T07:48:27.755Z,100.00
2018-11-27T07:50:57.930Z,100.00
2018-11-27T07:53:28.854Z,100.00
2018-11-27T07:55:59.957Z,100.00
2018-11-27T07:58:30.706Z,100.00
2018-11-27T08:01:02.049Z,100.00
2018-11-27T08:03:32.937Z,100.00
2018-11-27T08:06:03.155Z,100.00
2018-11-27T08:08:34.008Z,100.00
2018-11-27T08:11:04.165Z,100.00
2018-11-27T08:13:38.886Z,100.00
2018-11-27T08:16:11.066Z,100.00
2018-11-27T08:18:43.047Z,100.00
2018-11-27T08:21:15.082Z,100.00
2018-11-27T08:23:45.160Z,100.00
2018-11-27T08:26:16.874Z,100.00
2018-11-27T08:28:48.077Z,100.00
2018-11-27T08:31:18.728Z,100.00
2018-11-27T08:33:49.587Z,100.00
2018-11-27T08:36:20.208Z,100.00
2018-11-27T08:38:50.224Z,100.00
2018-11-27T08:41:21.617Z,100.00
2018-11-27T08:43:52.290Z,100.00
2018-11-27T08:46:29.204Z,100.00
2018-11-27T08:49:00.337Z,100.00
2018-11-27T08:51:30.484Z,100.00
2018-11-27T08:54:01.221Z,100.00
2018-11-27T08:56:35.073Z,100.00
2018-11-27T08:59:06.985Z,100.00
2018-11-27T09:01:40.162Z,100.00
2018-11-27T09:04:11.244Z,100.00
2018-11-27T09:06:41.325Z,100.00
2018-11-27T09:09:11.653Z,100.00
2018-11-27T09:11:42.341Z,100.00
2018-11-27T09:14:14.070Z,100.00
2018-11-27T09:16:45.325Z,100.00
2018-11-27T09:19:16.778Z,100.00
2018-11-27T09:21:48.415Z,100.00
2018-11-27T09:24:19.252Z,100.00
2018-11-27T09:26:49.498Z,100.00
2018-11-27T09:29:20.249Z,100.00
2018-11-27T09:31:51.260Z,100.00
2018-11-27T09:34:21.589Z,100.00
2018-11-27T09:36:52.320Z,100.00
2018-11-27T09:39:26.172Z,100.00
2018-11-27T09:41:56.477Z,100.00
2018-11-27T09:44:27.531Z,100.00
2018-11-27T09:47:02.543Z,100.00
2018-11-27T09:49:33.475Z,100.00
2018-11-27T09:52:05.717Z,100.00
2018-11-27T09:54:37.530Z,100.00
2018-11-27T09:57:07.723Z,100.00
2018-11-27T09:59:38.577Z,100.00
2018-11-27T10:02:15.316Z,100.00
2018-11-27T10:04:46.407Z,100.00
2018-11-27T10:07:16.875Z,100.00
2018-11-27T10:09:47.620Z,100.00
2018-11-27T10:12:17.646Z,100.00
2018-11-27T10:14:48.765Z,100.00
2018-11-27T10:17:19.488Z,100.00
2018-11-27T10:19:49.564Z,100.00
2018-11-27T10:22:20.627Z,100.00
2018-11-27T10:24:54.567Z,100.00
2018-11-27T10:27:24.628Z,100.00
2018-11-27T10:29:55.567Z,100.00
2018-11-27T10:32:26.668Z,100.00
2018-11-27T10:34:56.644Z,100.00
2018-11-27T10:37:26.748Z,100.00
2018-11-27T10:39:57.754Z,100.00
2018-11-27T10:42:30.243Z,100.00
2018-11-27T10:44:58.766Z,100.00
2018-11-27T10:47:29.840Z,100.00
2018-11-27T10:50:01.391Z,100.00
2018-11-27T10:52:34.577Z,100.00
2018-11-27T10:55:08.058Z,100.00
2018-11-27T10:57:40.960Z,100.00
2018-11-27T11:00:25.244Z,100.00
2018-11-27T11:04:03.735Z,100.00
2018-11-27T11:06:34.891Z,100.00
2018-11-27T11:09:09.954Z,100.00
2018-11-27T11:11:45.528Z,100.00
2018-11-27T11:14:15.810Z,100.00
2018-11-27T11:16:46.793Z,100.00
2018-11-27T11:19:18.485Z,100.00
2018-11-27T11:21:47.868Z,100.00
2018-11-27T11:24:23.815Z,100.00
2018-11-27T11:26:57.655Z,100.00
2018-11-27T11:29:27.939Z,100.00
2018-11-27T11:31:58.954Z,100.00
2018-11-27T11:34:30.027Z,100.00
2018-11-27T11:37:00.097Z,100.00
2018-11-27T11:39:31.504Z,100.00
2018-11-27T11:42:04.100Z,100.00
2018-11-27T11:44:34.999Z,100.00
2018-11-27T11:47:06.650Z,100.00
2018-11-27T11:49:39.014Z,100.00
2018-11-27T11:52:12.848Z,100.00
2018-11-27T11:54:43.739Z,100.00
2018-11-27T11:57:14.166Z,100.00
2018-11-27T11:59:50.929Z,100.00
2018-11-27T12:02:23.255Z,100.00
2018-11-27T12:04:55.094Z,100.00
2018-11-27T12:07:26.180Z,100.00
2018-11-27T12:09:58.016Z,100.00
2018-11-27T12:12:28.172Z,100.00
2018-11-27T12:14:59.197Z,100.00
2018-11-27T12:17:33.034Z,100.00
2018-11-27T12:20:03.306Z,100.00
2018-11-27T12:22:35.671Z,100.00
2018-11-27T12:25:12.032Z,100.00
2018-11-27T12:27:44.119Z,100.00
2018-11-27T12:30:18.123Z,100.00
2018-11-27T12:32:48.379Z,100.00
2018-11-27T12:35:23.593Z,100.00
2018-11-27T12:37:56.035Z,100.00
2018-11-27T12:40:28.880Z,100.00
2018-11-27T12:43:01.367Z,100.00
2018-11-27T12:45:33.784Z,100.00
2018-11-27T12:48:04.652Z,99.91
2018-11-27T12:50:46.448Z,100.00
2018-11-27T12:53:18.166Z,100.00
2018-11-27T12:55:50.375Z,99.53
2018-11-27T12:58:20.431Z,100.00
2018-11-27T13:00:52.493Z,100.00
2018-11-27T13:03:23.531Z,100.00
2018-11-27T13:06:01.552Z,99.35
2018-11-27T13:08:37.385Z,99.85
2018-11-27T13:11:11.455Z,100.00
2018-11-27T13:13:38.359Z,100.00
2018-11-27T13:16:09.463Z,100.00
2018-11-27T13:18:42.623Z,99.17
2018-11-27T13:21:13.623Z,98.16
2018-11-27T13:23:50.359Z,98.35
2018-11-27T13:26:20.543Z,99.18
2018-11-27T13:28:52.682Z,99.58
2018-11-27T13:31:28.653Z,99.62
2018-11-27T13:34:11.655Z,97.93
2018-11-27T13:36:41.940Z,99.43
2018-11-27T13:39:24.016Z,98.20
2018-11-27T13:41:54.132Z,97.41
2018-11-27T13:44:26.772Z,97.55
2018-11-27T13:46:58.599Z,97.19
2018-11-27T13:49:29.503Z,97.36
2018-11-27T13:52:01.642Z,97.63
2018-11-27T13:54:33.390Z,99.20
2018-11-27T13:57:06.196Z,99.05
2018-11-27T13:59:36.704Z,100.00
2018-11-27T14:02:12.491Z,99.69
2018-11-27T14:04:43.743Z,100.00
2018-11-27T14:07:15.893Z,100.00
2018-11-27T14:09:46.876Z,100.00
2018-11-27T14:12:17.313Z,100.00
2018-11-27T14:14:47.731Z,99.92
2018-11-27T14:17:17.936Z,100.00
2018-11-27T14:19:48.677Z,100.00
2018-11-27T14:22:25.114Z,100.00
2018-11-27T14:24:51.698Z,100.00
2018-11-27T14:27:23.773Z,100.00
2018-11-27T14:29:55.837Z,100.00
2018-11-27T14:32:30.753Z,100.00
2018-11-27T14:35:01.827Z,100.00
2018-11-27T14:37:31.935Z,100.00
2018-11-27T14:40:02.952Z,100.00
2018-11-27T14:42:34.137Z,100.00
2018-11-27T14:45:08.909Z,100.00
2018-11-27T14:47:39.776Z,100.00
2018-11-27T14:50:12.625Z,100.00
2018-11-27T14:52:43.889Z,100.00
2018-11-27T14:55:26.875Z,100.00
2018-11-27T14:57:56.957Z,100.00
2018-11-27T15:00:28.257Z,100.00
2018-11-27T15:03:01.575Z,100.00
2018-11-27T15:05:33.191Z,100.00
2018-11-27T15:08:10.486Z,100.00
2018-11-27T15:10:41.935Z,100.00
2018-11-27T15:13:13.660Z,100.00
2018-11-27T15:15:46.000Z,100.00
2018-11-27T15:18:17.136Z,100.00
2018-11-27T15:20:50.832Z,100.00
2018-11-27T15:23:20.925Z,100.00
2018-11-27T15:25:51.965Z,100.00
2018-11-27T15:28:24.143Z,100.00
2018-11-27T15:30:56.270Z,100.00
2018-11-27T15:33:26.868Z,100.00
2018-11-27T15:35:57.021Z,100.00
2018-11-27T15:38:27.061Z,100.00
2018-11-27T15:40:57.075Z,100.00
2018-11-27T15:43:32.963Z,100.00
2018-11-27T15:46:03.069Z,100.00
2018-11-27T15:48:34.319Z,100.00
2018-11-27T15:51:05.396Z,100.00
2018-11-27T15:53:44.028Z,100.00
2018-11-27T15:56:14.322Z,100.00
2018-11-27T15:58:48.093Z,100.00
2018-11-27T16:01:18.139Z,100.00
2018-11-27T16:03:49.151Z,100.00
2018-11-27T16:06:19.661Z,100.00
2018-11-27T16:08:50.201Z,99.83
2018-11-27T16:11:20.750Z,99.93
2018-11-27T16:13:55.351Z,100.00
2018-11-27T16:16:23.889Z,100.00
2018-11-27T16:18:55.284Z,100.00
2018-11-27T16:21:26.301Z,100.00
2018-11-27T16:23:56.315Z,100.00
2018-11-27T16:26:27.368Z,100.00
2018-11-27T16:29:01.071Z,100.00
2018-11-27T16:31:31.498Z,100.00
2018-11-27T16:34:02.288Z,100.00
2018-11-27T16:36:33.378Z,100.00
2018-11-27T16:39:10.764Z,100.00
2018-11-27T16:41:43.409Z,100.00
2018-11-27T16:44:14.324Z,100.00
2018-11-27T16:46:45.141Z,100.00
2018-11-27T16:49:15.488Z,100.00
2018-11-27T16:51:46.354Z,100.00
2018-11-27T16:54:17.301Z,100.00
2018-11-27T16:56:47.483Z,100.00
2018-11-27T16:59:17.520Z,100.00
2018-11-27T17:01:55.433Z,100.00
2018-11-27T17:04:25.546Z,100.00
2018-11-27T17:06:56.415Z,100.00
2018-11-27T17:09:26.683Z,100.00
2018-11-27T17:11:57.504Z,100.00
2018-11-27T17:14:27.624Z,100.00
2018-11-27T17:16:58.553Z,100.00
2018-11-27T17:19:31.608Z,100.00
2018-11-27T17:22:02.485Z,100.00
2018-11-27T17:24:32.579Z,100.00
2018-11-27T17:27:03.588Z,100.00
2018-11-27T17:29:34.557Z,100.00
2018-11-27T17:32:07.795Z,100.00
2018-11-27T17:34:39.617Z,100.00
2018-11-27T17:37:11.635Z,100.00
2018-11-27T17:39:42.435Z,100.00
2018-11-27T17:42:12.549Z,100.00
2018-11-27T17:44:43.641Z,100.00
2018-11-27T17:47:17.854Z,100.00
2018-11-27T17:49:50.697Z,100.00
2018-11-27T17:52:20.735Z,100.00
2018-11-27T17:54:52.684Z,100.00
2018-11-27T17:57:23.751Z,100.00
2018-11-27T17:59:53.772Z,100.00
2018-11-27T18:02:27.733Z,100.00
2018-11-27T18:05:01.572Z,100.00
2018-11-27T18:07:32.708Z,100.00
2018-11-27T18:10:02.711Z,100.00
2018-11-27T18:12:33.953Z,100.00
2018-11-27T18:15:05.137Z,98.25
2018-11-27T18:17:37.893Z,96.21
2018-11-27T18:20:10.145Z,96.27
2018-11-27T18:22:41.885Z,97.52
2018-11-27T18:25:14.815Z,98.32
2018-11-27T18:27:47.207Z,97.40
2018-11-27T18:30:18.863Z,95.87
2018-11-27T18:32:55.750Z,95.54
2018-11-27T18:35:26.833Z,94.79
2018-11-27T18:37:56.875Z,94.11
2018-11-27T18:40:27.789Z,93.19
2018-11-27T18:42:57.970Z,94.56
2018-11-27T18:45:31.248Z,95.82
2018-11-27T18:48:02.011Z,97.68
2018-11-27T18:50:39.968Z,98.05
2018-11-27T18:53:11.909Z,97.70
2018-11-27T18:55:43.042Z,96.92
2018-11-27T18:58:14.030Z,96.31
2018-11-27T19:00:44.234Z,96.43
2018-11-27T19:03:15.304Z,96.12
2018-11-27T19:05:46.411Z,97.06
2018-11-27T19:08:17.659Z,97.05
2018-11-27T19:10:56.652Z,96.52
2018-11-27T19:13:27.954Z,97.37
2018-11-27T19:15:58.133Z,98.12
2018-11-27T19:18:29.147Z,99.36
2018-11-27T19:21:00.973Z,100.00
2018-11-27T19:23:31.925Z,100.00
2018-11-27T19:26:04.003Z,100.00
2018-11-27T19:28:35.144Z,100.00
2018-11-27T19:31:06.316Z,100.00
2018-11-27T19:33:37.244Z,100.00
2018-11-27T19:36:08.186Z,100.00
2018-11-27T19:38:41.356Z,98.97
2018-11-27T19:41:12.078Z,99.07
2018-11-27T19:43:42.199Z,99.21
2018-11-27T19:46:14.208Z,96.90
2018-11-27T19:48:46.373Z,95.29
2018-11-27T19:51:17.512Z,93.87
2018-11-27T19:53:47.826Z,93.72
2018-11-27T19:56:17.984Z,93.64
2018-11-27T19:58:49.179Z,93.50
2018-11-27T20:01:19.834Z,92.98
2018-11-27T20:03:50.214Z,93.55
2018-11-27T20:06:20.901Z,93.71
2018-11-27T20:08:51.278Z,93.01
2018-11-27T20:11:21.366Z,93.03
2018-11-27T20:13:52.922Z,91.77
2018-11-27T20:16:29.258Z,91.19
2018-11-27T20:19:00.316Z,91.24
2018-11-27T20:21:30.443Z,91.47
2018-11-27T20:24:01.421Z,91.88
2018-11-27T20:26:31.430Z,91.21
2018-11-27T20:29:03.430Z,90.67
2018-11-27T20:31:36.410Z,90.83
2018-11-27T20:34:13.337Z,91.50
2018-11-27T20:36:44.169Z,91.31
2018-11-27T20:39:14.517Z,92.83
2018-11-27T20:41:45.060Z,92.59
2018-11-27T20:44:17.488Z,92.97
2018-11-27T20:46:48.427Z,93.13
2018-11-27T20:49:21.196Z,95.52
2018-11-27T20:51:52.498Z,96.14
2018-11-27T20:54:24.561Z,95.61
2018-11-27T20:56:55.788Z,95.73
2018-11-27T20:59:27.606Z,95.43
2018-11-27T21:02:04.465Z,96.89
2018-11-27T21:04:34.946Z,97.17
2018-11-27T21:07:05.813Z,98.43
2018-11-27T21:09:36.204Z,97.59
2018-11-27T21:12:06.806Z,94.87
2018-11-27T21:14:37.319Z,94.90
2018-11-27T21:17:07.836Z,95.09
2018-11-27T21:19:39.607Z,93.10
2018-11-27T21:22:10.505Z,93.23
2018-11-27T21:24:40.758Z,94.34
2018-11-27T21:27:11.754Z,93.04
2018-11-27T21:29:45.533Z,94.33
2018-11-27T21:32:16.732Z,94.87
2018-11-27T21:34:50.021Z,96.21
2018-11-27T21:37:21.668Z,97.16
2018-11-27T21:39:51.735Z,96.64
2018-11-27T21:42:24.543Z,94.84
2018-11-27T21:44:55.928Z,96.38
2018-11-27T21:47:29.644Z,96.34
2018-11-27T21:49:59.723Z,97.73
2018-11-27T21:52:30.728Z,97.58
2018-11-27T21:55:00.996Z,96.03
2018-11-27T21:57:31.752Z,95.53
2018-11-27T22:00:01.844Z,95.69
2018-11-27T22:02:37.759Z,95.65
2018-11-27T22:05:09.483Z,93.67
2018-11-27T22:07:42.245Z,94.49
2018-11-27T22:10:17.245Z,94.36
2018-11-27T22:12:50.231Z,95.05
2018-11-27T22:15:31.907Z,95.30
2018-11-27T22:18:03.331Z,94.20
2018-11-27T22:20:36.108Z,93.37
2018-11-27T22:23:10.529Z,95.40
2018-11-27T22:25:40.662Z,94.90
2018-11-27T22:28:11.139Z,95.55
2018-11-27T22:30:41.741Z,96.53
2018-11-27T22:33:11.871Z,95.71
2018-11-27T22:35:42.994Z,95.47
2018-11-27T22:38:13.003Z,96.41
2018-11-27T22:40:49.822Z,95.01
2018-11-27T22:43:21.144Z,91.04
2018-11-27T22:45:52.000Z,91.15
2018-11-27T22:48:29.777Z,91.48
2018-11-27T22:51:01.950Z,91.11
2018-11-27T22:53:32.835Z,92.46
2018-11-27T22:56:03.227Z,94.76
2018-11-27T22:58:34.148Z,95.77
2018-11-27T23:01:05.176Z,95.38
2018-11-27T23:03:35.200Z,95.27
2018-11-27T23:06:05.879Z,96.06
2018-11-27T23:08:36.149Z,95.57
2018-11-27T23:11:06.820Z,94.80
2018-11-27T23:13:37.103Z,95.81
2018-11-27T23:16:07.408Z,96.00
2018-11-27T23:18:38.241Z,96.24
2018-11-27T23:21:08.941Z,96.41
2018-11-27T23:23:39.099Z,96.01
2018-11-27T23:26:09.167Z,94.24
2018-11-27T23:28:40.681Z,93.87
2018-11-27T23:31:10.863Z,92.75
2018-11-27T23:33:41.244Z,91.43
2018-11-27T23:36:11.773Z,92.02
2018-11-27T23:38:42.135Z,93.59
2018-11-27T23:41:14.382Z,93.51
2018-11-27T23:43:45.368Z,94.27
2018-11-27T23:46:15.895Z,94.90
2018-11-27T23:48:46.236Z,94.32
2018-11-27T23:51:17.169Z,95.30
2018-11-27T23:53:47.891Z,95.24
2018-11-27T23:56:18.035Z,95.18
2018-11-27T23:58:49.342Z,95.66
